sensor_id;sensor_type;location;lat;lon;timestamp;temperature;humidity
33903;DHT22;20194;50.950;5.346;2023-11-21T00:00:16;10.10;99.90
33903;DHT22;20194;50.950;5.346;2023-11-21T00:02:44;10.20;99.90
33903;DHT22;20194;50.950;5.346;2023-11-21T00:05:12;10.30;99.90
33903;DHT22;20194;50.950;5.346;2023-11-21T00:07:40;10.30;99.90
33903;DHT22;20194;50.950;5.346;2023-11-21T00:10:07;10.20;99.90
33903;DHT22;20194;50.950;5.346;2023-11-21T00:12:36;9.90;99.90
33903;DHT22;20194;50.950;5.346;2023-11-21T00:15:02;10.00;99.90
33903;DHT22;20194;50.950;5.346;2023-11-21T00:17:28;10.10;99.90
33903;DHT22;20194;50.950;5.346;2023-11-21T00:19:54;10.10;99.90
33903;DHT22;20194;50.950;5.346;2023-11-21T00:22:20;10.00;99.90
33903;DHT22;20194;50.950;5.346;2023-11-21T00:24:46;10.10;99.90
33903;DHT22;20194;50.950;5.346;2023-11-21T00:27:12;10.30;99.90
33903;DHT22;20194;50.950;5.346;2023-11-21T00:29:38;10.50;99.90
33903;DHT22;20194;50.950;5.346;2023-11-21T00:32:05;10.60;99.90
33903;DHT22;20194;50.950;5.346;2023-11-21T00:34:31;10.50;99.90
33903;DHT22;20194;50.950;5.346;2023-11-21T00:36:57;10.40;99.90
33903;DHT22;20194;50.950;5.346;2023-11-21T00:39:23;10.30;99.90
33903;DHT22;20194;50.950;5.346;2023-11-21T00:41:49;10.20;99.90
33903;DHT22;20194;50.950;5.346;2023-11-21T00:44:15;10.20;99.90
33903;DHT22;20194;50.950;5.346;2023-11-21T00:46:41;10.40;99.90
33903;DHT22;20194;50.950;5.346;2023-11-21T00:49:07;10.30;99.90
33903;DHT22;20194;50.950;5.346;2023-11-21T00:51:33;10.10;99.90
33903;DHT22;20194;50.950;5.346;2023-11-21T00:53:59;10.20;99.90
33903;DHT22;20194;50.950;5.346;2023-11-21T00:56:25;10.20;99.90
33903;DHT22;20194;50.950;5.346;2023-11-21T00:58:50;10.30;99.90
33903;DHT22;20194;50.950;5.346;2023-11-21T01:01:18;10.10;99.90
33903;DHT22;20194;50.950;5.346;2023-11-21T01:03:46;10.20;99.90
33903;DHT22;20194;50.950;5.346;2023-11-21T01:06:12;10.30;99.90
33903;DHT22;20194;50.950;5.346;2023-11-21T01:08:37;10.30;99.90
33903;DHT22;20194;50.950;5.346;2023-11-21T01:11:03;10.40;99.90
33903;DHT22;20194;50.950;5.346;2023-11-21T01:13:33;10.40;99.90
33903;DHT22;20194;50.950;5.346;2023-11-21T01:16:02;10.40;99.90
33903;DHT22;20194;50.950;5.346;2023-11-21T01:18:27;10.40;99.90
33903;DHT22;20194;50.950;5.346;2023-11-21T01:20:54;10.50;99.90
33903;DHT22;20194;50.950;5.346;2023-11-21T01:23:20;10.40;99.90
33903;DHT22;20194;50.950;5.346;2023-11-21T01:25:46;10.40;99.90
33903;DHT22;20194;50.950;5.346;2023-11-21T01:28:12;10.40;99.90
33903;DHT22;20194;50.950;5.346;2023-11-21T01:30:38;10.50;99.90
33903;DHT22;20194;50.950;5.346;2023-11-21T01:33:03;10.50;99.90
33903;DHT22;20194;50.950;5.346;2023-11-21T01:35:29;10.60;99.90
33903;DHT22;20194;50.950;5.346;2023-11-21T01:37:55;10.70;99.90
33903;DHT22;20194;50.950;5.346;2023-11-21T01:40:21;10.50;99.90
33903;DHT22;20194;50.950;5.346;2023-11-21T01:42:47;10.40;99.90
33903;DHT22;20194;50.950;5.346;2023-11-21T01:45:13;10.40;99.90
33903;DHT22;20194;50.950;5.346;2023-11-21T01:47:41;10.60;99.90
33903;DHT22;20194;50.950;5.346;2023-11-21T01:50:08;10.70;99.90
33903;DHT22;20194;50.950;5.346;2023-11-21T01:52:37;10.80;99.90
33903;DHT22;20194;50.950;5.346;2023-11-21T01:55:04;10.60;99.90
33903;DHT22;20194;50.950;5.346;2023-11-21T01:57:31;10.60;99.90
33903;DHT22;20194;50.950;5.346;2023-11-21T01:59:58;10.50;99.90
33903;DHT22;20194;50.950;5.346;2023-11-21T02:02:26;10.70;99.90
33903;DHT22;20194;50.950;5.346;2023-11-21T02:04:52;10.60;99.90
33903;DHT22;20194;50.950;5.346;2023-11-21T02:07:17;10.40;99.90
33903;DHT22;20194;50.950;5.346;2023-11-21T02:09:45;10.40;99.90
33903;DHT22;20194;50.950;5.346;2023-11-21T02:12:10;10.40;99.90
33903;DHT22;20194;50.950;5.346;2023-11-21T02:14:36;10.40;99.90
33903;DHT22;20194;50.950;5.346;2023-11-21T02:17:02;10.40;99.90
33903;DHT22;20194;50.950;5.346;2023-11-21T02:19:29;10.40;99.90
33903;DHT22;20194;50.950;5.346;2023-11-21T02:21:56;10.30;99.90
33903;DHT22;20194;50.950;5.346;2023-11-21T02:24:32;10.30;99.90
33903;DHT22;20194;50.950;5.346;2023-11-21T02:26:58;10.30;99.90
33903;DHT22;20194;50.950;5.346;2023-11-21T02:29:23;10.30;99.90
33903;DHT22;20194;50.950;5.346;2023-11-21T02:31:54;10.40;99.90
33903;DHT22;20194;50.950;5.346;2023-11-21T02:34:21;10.30;99.90
33903;DHT22;20194;50.950;5.346;2023-11-21T02:36:48;10.30;99.90
33903;DHT22;20194;50.950;5.346;2023-11-21T02:39:16;10.30;99.90
33903;DHT22;20194;50.950;5.346;2023-11-21T02:41:43;10.40;99.90
33903;DHT22;20194;50.950;5.346;2023-11-21T02:44:09;10.40;99.90
33903;DHT22;20194;50.950;5.346;2023-11-21T02:46:36;10.40;99.90
33903;DHT22;20194;50.950;5.346;2023-11-21T02:49:03;10.50;99.90
33903;DHT22;20194;50.950;5.346;2023-11-21T02:51:31;10.50;99.90
33903;DHT22;20194;50.950;5.346;2023-11-21T02:53:57;10.60;99.90
33903;DHT22;20194;50.950;5.346;2023-11-21T02:56:28;10.50;99.90
33903;DHT22;20194;50.950;5.346;2023-11-21T02:58:58;10.60;99.90
33903;DHT22;20194;50.950;5.346;2023-11-21T03:01:25;10.60;99.90
33903;DHT22;20194;50.950;5.346;2023-11-21T03:03:51;10.60;99.90
33903;DHT22;20194;50.950;5.346;2023-11-21T03:06:18;10.60;99.90
33903;DHT22;20194;50.950;5.346;2023-11-21T03:08:44;10.50;99.90
33903;DHT22;20194;50.950;5.346;2023-11-21T03:11:10;10.40;99.90
33903;DHT22;20194;50.950;5.346;2023-11-21T03:13:35;10.50;99.90
33903;DHT22;20194;50.950;5.346;2023-11-21T03:16:01;10.60;99.90
33903;DHT22;20194;50.950;5.346;2023-11-21T03:18:26;10.40;99.90
33903;DHT22;20194;50.950;5.346;2023-11-21T03:20:54;10.20;99.90
33903;DHT22;20194;50.950;5.346;2023-11-21T03:23:20;10.10;99.90
33903;DHT22;20194;50.950;5.346;2023-11-21T03:25:46;10.20;99.90
33903;DHT22;20194;50.950;5.346;2023-11-21T03:28:12;10.30;99.90
33903;DHT22;20194;50.950;5.346;2023-11-21T03:30:38;10.20;99.90
33903;DHT22;20194;50.950;5.346;2023-11-21T03:33:04;10.10;99.90
33903;DHT22;20194;50.950;5.346;2023-11-21T03:35:29;10.20;99.90
33903;DHT22;20194;50.950;5.346;2023-11-21T03:37:55;10.00;99.90
33903;DHT22;20194;50.950;5.346;2023-11-21T03:40:22;9.80;99.90
33903;DHT22;20194;50.950;5.346;2023-11-21T03:42:47;9.60;99.90
33903;DHT22;20194;50.950;5.346;2023-11-21T03:45:13;9.70;99.90
33903;DHT22;20194;50.950;5.346;2023-11-21T03:47:43;9.80;99.90
33903;DHT22;20194;50.950;5.346;2023-11-21T03:50:09;9.70;99.90
33903;DHT22;20194;50.950;5.346;2023-11-21T03:52:35;9.70;99.90
33903;DHT22;20194;50.950;5.346;2023-11-21T03:55:04;9.80;99.90
33903;DHT22;20194;50.950;5.346;2023-11-21T03:57:29;10.00;99.90
33903;DHT22;20194;50.950;5.346;2023-11-21T03:59:55;10.10;99.90
33903;DHT22;20194;50.950;5.346;2023-11-21T04:02:21;9.80;99.90
33903;DHT22;20194;50.950;5.346;2023-11-21T04:04:47;9.80;99.90
33903;DHT22;20194;50.950;5.346;2023-11-21T04:07:13;9.90;99.90
33903;DHT22;20194;50.950;5.346;2023-11-21T04:09:39;10.00;99.90
33903;DHT22;20194;50.950;5.346;2023-11-21T04:12:05;10.00;99.90
33903;DHT22;20194;50.950;5.346;2023-11-21T04:14:31;9.80;99.90
33903;DHT22;20194;50.950;5.346;2023-11-21T04:16:57;9.70;99.90
33903;DHT22;20194;50.950;5.346;2023-11-21T04:19:23;9.60;99.90
33903;DHT22;20194;50.950;5.346;2023-11-21T04:21:48;9.50;99.90
33903;DHT22;20194;50.950;5.346;2023-11-21T04:24:14;9.80;99.90
33903;DHT22;20194;50.950;5.346;2023-11-21T04:26:41;9.90;99.90
33903;DHT22;20194;50.950;5.346;2023-11-21T04:29:07;9.70;99.90
33903;DHT22;20194;50.950;5.346;2023-11-21T04:31:32;9.60;99.90
33903;DHT22;20194;50.950;5.346;2023-11-21T04:33:58;9.70;99.90
33903;DHT22;20194;50.950;5.346;2023-11-21T04:36:24;9.70;99.90
33903;DHT22;20194;50.950;5.346;2023-11-21T04:38:49;9.80;99.90
33903;DHT22;20194;50.950;5.346;2023-11-21T04:41:15;9.80;99.90
33903;DHT22;20194;50.950;5.346;2023-11-21T04:43:41;9.70;99.90
33903;DHT22;20194;50.950;5.346;2023-11-21T04:46:08;9.80;99.90
33903;DHT22;20194;50.950;5.346;2023-11-21T04:48:34;9.80;99.90
33903;DHT22;20194;50.950;5.346;2023-11-21T04:50:59;9.80;99.90
33903;DHT22;20194;50.950;5.346;2023-11-21T04:53:25;9.50;99.90
33903;DHT22;20194;50.950;5.346;2023-11-21T04:55:51;9.50;99.90
33903;DHT22;20194;50.950;5.346;2023-11-21T04:58:17;9.50;99.90
33903;DHT22;20194;50.950;5.346;2023-11-21T05:00:43;9.60;99.90
33903;DHT22;20194;50.950;5.346;2023-11-21T05:03:09;9.40;99.90
33903;DHT22;20194;50.950;5.346;2023-11-21T05:05:35;9.50;99.90
33903;DHT22;20194;50.950;5.346;2023-11-21T05:08:01;9.40;99.90
33903;DHT22;20194;50.950;5.346;2023-11-21T05:10:27;9.60;99.90
33903;DHT22;20194;50.950;5.346;2023-11-21T05:12:53;9.70;99.90
33903;DHT22;20194;50.950;5.346;2023-11-21T05:15:18;9.60;99.90
33903;DHT22;20194;50.950;5.346;2023-11-21T05:17:45;9.30;99.90
33903;DHT22;20194;50.950;5.346;2023-11-21T05:20:12;9.20;99.90
33903;DHT22;20194;50.950;5.346;2023-11-21T05:22:40;9.50;99.90
33903;DHT22;20194;50.950;5.346;2023-11-21T05:25:07;9.60;99.90
33903;DHT22;20194;50.950;5.346;2023-11-21T05:27:34;9.50;99.90
33903;DHT22;20194;50.950;5.346;2023-11-21T05:30:04;9.60;99.90
33903;DHT22;20194;50.950;5.346;2023-11-21T05:32:38;9.80;99.90
33903;DHT22;20194;50.950;5.346;2023-11-21T05:35:04;9.90;99.90
33903;DHT22;20194;50.950;5.346;2023-11-21T05:37:35;9.60;99.90
33903;DHT22;20194;50.950;5.346;2023-11-21T05:40:01;9.50;99.90
33903;DHT22;20194;50.950;5.346;2023-11-21T05:42:31;9.40;99.90
33903;DHT22;20194;50.950;5.346;2023-11-21T05:44:57;9.30;99.90
33903;DHT22;20194;50.950;5.346;2023-11-21T05:47:25;9.30;99.90
33903;DHT22;20194;50.950;5.346;2023-11-21T05:49:51;9.30;99.90
33903;DHT22;20194;50.950;5.346;2023-11-21T05:52:18;9.40;99.90
33903;DHT22;20194;50.950;5.346;2023-11-21T05:54:43;9.40;99.90
33903;DHT22;20194;50.950;5.346;2023-11-21T05:57:11;9.40;99.90
33903;DHT22;20194;50.950;5.346;2023-11-21T05:59:36;9.40;99.90
33903;DHT22;20194;50.950;5.346;2023-11-21T06:02:03;9.30;99.90
33903;DHT22;20194;50.950;5.346;2023-11-21T06:04:30;9.50;99.90
33903;DHT22;20194;50.950;5.346;2023-11-21T06:06:56;9.50;99.90
33903;DHT22;20194;50.950;5.346;2023-11-21T06:09:22;9.70;99.90
33903;DHT22;20194;50.950;5.346;2023-11-21T06:11:48;9.70;99.90
33903;DHT22;20194;50.950;5.346;2023-11-21T06:14:13;9.90;99.90
33903;DHT22;20194;50.950;5.346;2023-11-21T06:16:40;9.90;99.90
33903;DHT22;20194;50.950;5.346;2023-11-21T06:19:06;9.80;99.90
33903;DHT22;20194;50.950;5.346;2023-11-21T06:21:32;9.70;99.90
33903;DHT22;20194;50.950;5.346;2023-11-21T06:23:59;10.00;99.90
33903;DHT22;20194;50.950;5.346;2023-11-21T06:26:24;10.00;99.90
33903;DHT22;20194;50.950;5.346;2023-11-21T06:28:51;10.10;99.90
33903;DHT22;20194;50.950;5.346;2023-11-21T06:31:18;10.10;99.90
33903;DHT22;20194;50.950;5.346;2023-11-21T06:33:43;10.10;99.90
33903;DHT22;20194;50.950;5.346;2023-11-21T06:36:09;10.10;99.90
33903;DHT22;20194;50.950;5.346;2023-11-21T06:38:37;10.30;99.90
33903;DHT22;20194;50.950;5.346;2023-11-21T06:41:02;10.30;99.90
33903;DHT22;20194;50.950;5.346;2023-11-21T06:43:30;10.30;99.90
33903;DHT22;20194;50.950;5.346;2023-11-21T06:45:59;10.40;99.90
33903;DHT22;20194;50.950;5.346;2023-11-21T06:48:25;10.30;99.90
33903;DHT22;20194;50.950;5.346;2023-11-21T06:50:50;10.40;99.90
33903;DHT22;20194;50.950;5.346;2023-11-21T06:53:17;10.50;99.90
33903;DHT22;20194;50.950;5.346;2023-11-21T06:55:43;10.40;99.90
33903;DHT22;20194;50.950;5.346;2023-11-21T06:58:09;10.40;99.90
33903;DHT22;20194;50.950;5.346;2023-11-21T07:00:34;10.30;99.90
33903;DHT22;20194;50.950;5.346;2023-11-21T07:03:00;10.10;99.90
33903;DHT22;20194;50.950;5.346;2023-11-21T07:05:26;10.00;99.90
33903;DHT22;20194;50.950;5.346;2023-11-21T07:07:51;10.10;99.90
33903;DHT22;20194;50.950;5.346;2023-11-21T07:10:19;9.90;99.90
33903;DHT22;20194;50.950;5.346;2023-11-21T07:12:45;10.00;99.90
33903;DHT22;20194;50.950;5.346;2023-11-21T07:15:11;10.10;99.90
33903;DHT22;20194;50.950;5.346;2023-11-21T07:17:37;10.10;99.90
33903;DHT22;20194;50.950;5.346;2023-11-21T07:20:03;10.10;99.90
33903;DHT22;20194;50.950;5.346;2023-11-21T07:22:29;10.10;99.90
33903;DHT22;20194;50.950;5.346;2023-11-21T07:24:55;10.20;99.90
33903;DHT22;20194;50.950;5.346;2023-11-21T07:27:22;10.20;99.90
33903;DHT22;20194;50.950;5.346;2023-11-21T07:29:47;10.20;99.90
33903;DHT22;20194;50.950;5.346;2023-11-21T07:32:14;10.20;99.90
33903;DHT22;20194;50.950;5.346;2023-11-21T07:34:40;10.30;99.90
33903;DHT22;20194;50.950;5.346;2023-11-21T07:37:07;10.40;99.90
33903;DHT22;20194;50.950;5.346;2023-11-21T07:39:34;10.30;99.90
33903;DHT22;20194;50.950;5.346;2023-11-21T07:42:01;10.10;99.90
33903;DHT22;20194;50.950;5.346;2023-11-21T07:44:28;10.10;99.90
33903;DHT22;20194;50.950;5.346;2023-11-21T07:46:54;10.10;99.90
33903;DHT22;20194;50.950;5.346;2023-11-21T07:49:26;10.30;99.90
33903;DHT22;20194;50.950;5.346;2023-11-21T07:51:52;10.30;99.90
33903;DHT22;20194;50.950;5.346;2023-11-21T07:54:18;10.30;99.90
33903;DHT22;20194;50.950;5.346;2023-11-21T07:56:43;10.20;99.90
33903;DHT22;20194;50.950;5.346;2023-11-21T07:59:10;10.10;99.90
33903;DHT22;20194;50.950;5.346;2023-11-21T08:01:36;10.20;99.90
33903;DHT22;20194;50.950;5.346;2023-11-21T08:04:02;10.10;99.90
33903;DHT22;20194;50.950;5.346;2023-11-21T08:06:29;10.20;99.90
33903;DHT22;20194;50.950;5.346;2023-11-21T08:08:56;10.00;99.90
33903;DHT22;20194;50.950;5.346;2023-11-21T08:11:22;10.00;99.90
33903;DHT22;20194;50.950;5.346;2023-11-21T08:13:48;10.00;99.90
33903;DHT22;20194;50.950;5.346;2023-11-21T08:16:14;9.90;99.90
33903;DHT22;20194;50.950;5.346;2023-11-21T08:18:40;10.00;99.90
33903;DHT22;20194;50.950;5.346;2023-11-21T08:21:06;10.10;99.90
33903;DHT22;20194;50.950;5.346;2023-11-21T08:23:34;10.10;99.90
33903;DHT22;20194;50.950;5.346;2023-11-21T08:26:00;10.30;99.90
33903;DHT22;20194;50.950;5.346;2023-11-21T08:28:27;10.30;99.90
33903;DHT22;20194;50.950;5.346;2023-11-21T08:30:53;10.40;99.90
33903;DHT22;20194;50.950;5.346;2023-11-21T08:33:21;10.50;99.90
33903;DHT22;20194;50.950;5.346;2023-11-21T08:35:48;10.50;99.90
33903;DHT22;20194;50.950;5.346;2023-11-21T08:38:14;10.40;99.90
33903;DHT22;20194;50.950;5.346;2023-11-21T08:40:39;10.40;99.90
33903;DHT22;20194;50.950;5.346;2023-11-21T08:43:06;10.40;99.90
33903;DHT22;20194;50.950;5.346;2023-11-21T08:45:32;10.30;99.90
33903;DHT22;20194;50.950;5.346;2023-11-21T08:48:00;10.40;99.90
33903;DHT22;20194;50.950;5.346;2023-11-21T08:50:26;10.40;99.90
33903;DHT22;20194;50.950;5.346;2023-11-21T08:52:51;10.40;99.90
33903;DHT22;20194;50.950;5.346;2023-11-21T08:55:17;10.50;99.90
33903;DHT22;20194;50.950;5.346;2023-11-21T08:57:45;10.60;99.90
33903;DHT22;20194;50.950;5.346;2023-11-21T09:00:12;10.70;99.90
33903;DHT22;20194;50.950;5.346;2023-11-21T09:02:41;10.80;99.90
33903;DHT22;20194;50.950;5.346;2023-11-21T09:05:08;10.80;99.90
33903;DHT22;20194;50.950;5.346;2023-11-21T09:07:35;10.80;99.90
33903;DHT22;20194;50.950;5.346;2023-11-21T09:10:01;10.90;99.90
33903;DHT22;20194;50.950;5.346;2023-11-21T09:12:27;10.80;99.90
33903;DHT22;20194;50.950;5.346;2023-11-21T09:14:53;10.70;99.90
33903;DHT22;20194;50.950;5.346;2023-11-21T09:17:19;10.70;99.90
33903;DHT22;20194;50.950;5.346;2023-11-21T09:19:44;10.80;99.90
33903;DHT22;20194;50.950;5.346;2023-11-21T09:22:17;10.80;99.90
33903;DHT22;20194;50.950;5.346;2023-11-21T09:24:43;11.10;99.90
33903;DHT22;20194;50.950;5.346;2023-11-21T09:27:09;11.10;99.90
33903;DHT22;20194;50.950;5.346;2023-11-21T09:29:38;10.90;99.90
33903;DHT22;20194;50.950;5.346;2023-11-21T09:32:07;10.80;99.90
33903;DHT22;20194;50.950;5.346;2023-11-21T09:34:34;10.80;99.90
33903;DHT22;20194;50.950;5.346;2023-11-21T09:37:06;10.70;99.90
33903;DHT22;20194;50.950;5.346;2023-11-21T09:39:35;10.80;99.90
33903;DHT22;20194;50.950;5.346;2023-11-21T09:42:12;10.90;99.90
33903;DHT22;20194;50.950;5.346;2023-11-21T09:47:35;11.10;99.90
33903;DHT22;20194;50.950;5.346;2023-11-21T09:50:04;10.90;99.90
33903;DHT22;20194;50.950;5.346;2023-11-21T09:52:44;11.00;99.90
33903;DHT22;20194;50.950;5.346;2023-11-21T09:55:16;11.20;99.90
33903;DHT22;20194;50.950;5.346;2023-11-21T09:57:45;11.30;99.90
33903;DHT22;20194;50.950;5.346;2023-11-21T10:00:11;11.20;99.90
33903;DHT22;20194;50.950;5.346;2023-11-21T10:02:39;11.00;99.90
33903;DHT22;20194;50.950;5.346;2023-11-21T10:05:06;11.00;99.90
33903;DHT22;20194;50.950;5.346;2023-11-21T10:07:34;11.10;99.90
33903;DHT22;20194;50.950;5.346;2023-11-21T10:10:01;11.10;99.90
33903;DHT22;20194;50.950;5.346;2023-11-21T10:12:28;10.90;99.90
33903;DHT22;20194;50.950;5.346;2023-11-21T10:14:57;10.80;99.90
33903;DHT22;20194;50.950;5.346;2023-11-21T10:17:24;10.80;99.90
33903;DHT22;20194;50.950;5.346;2023-11-21T10:19:53;11.00;99.90
33903;DHT22;20194;50.950;5.346;2023-11-21T10:22:20;11.20;99.90
33903;DHT22;20194;50.950;5.346;2023-11-21T10:24:46;11.30;99.90
33903;DHT22;20194;50.950;5.346;2023-11-21T10:27:11;11.40;99.90
33903;DHT22;20194;50.950;5.346;2023-11-21T10:29:39;11.20;99.90
33903;DHT22;20194;50.950;5.346;2023-11-21T10:32:05;10.90;99.90
33903;DHT22;20194;50.950;5.346;2023-11-21T10:34:31;11.00;99.90
33903;DHT22;20194;50.950;5.346;2023-11-21T10:36:57;11.20;99.90
33903;DHT22;20194;50.950;5.346;2023-11-21T10:39:24;11.30;99.90
33903;DHT22;20194;50.950;5.346;2023-11-21T10:41:55;11.40;99.90
33903;DHT22;20194;50.950;5.346;2023-11-21T10:44:21;11.50;99.90
33903;DHT22;20194;50.950;5.346;2023-11-21T10:46:52;11.60;99.90
33903;DHT22;20194;50.950;5.346;2023-11-21T10:49:30;11.50;99.90
33903;DHT22;20194;50.950;5.346;2023-11-21T10:51:56;11.60;99.90
33903;DHT22;20194;50.950;5.346;2023-11-21T10:54:23;11.60;99.90
33903;DHT22;20194;50.950;5.346;2023-11-21T10:56:58;11.60;99.90
33903;DHT22;20194;50.950;5.346;2023-11-21T10:59:28;11.70;99.90
33903;DHT22;20194;50.950;5.346;2023-11-21T11:01:54;11.80;99.90
33903;DHT22;20194;50.950;5.346;2023-11-21T11:04:22;11.80;99.90
33903;DHT22;20194;50.950;5.346;2023-11-21T11:07:03;11.90;99.90
33903;DHT22;20194;50.950;5.346;2023-11-21T11:09:31;12.10;99.90
33903;DHT22;20194;50.950;5.346;2023-11-21T11:12:00;11.90;99.90
33903;DHT22;20194;50.950;5.346;2023-11-21T11:14:27;11.80;99.90
33903;DHT22;20194;50.950;5.346;2023-11-21T11:16:54;11.60;99.90
33903;DHT22;20194;50.950;5.346;2023-11-21T11:19:23;11.50;99.90
33903;DHT22;20194;50.950;5.346;2023-11-21T11:27:40;11.50;99.90
33903;DHT22;20194;50.950;5.346;2023-11-21T11:33:12;11.00;99.90
33903;DHT22;20194;50.950;5.346;2023-11-21T11:35:52;11.20;99.90
33903;DHT22;20194;50.950;5.346;2023-11-21T11:38:21;11.30;99.90
33903;DHT22;20194;50.950;5.346;2023-11-21T11:40:52;11.40;99.90
33903;DHT22;20194;50.950;5.346;2023-11-21T11:43:27;11.50;99.90
33903;DHT22;20194;50.950;5.346;2023-11-21T11:45:57;11.40;99.90
33903;DHT22;20194;50.950;5.346;2023-11-21T11:48:24;11.60;99.90
33903;DHT22;20194;50.950;5.346;2023-11-21T11:51:10;11.50;99.90
33903;DHT22;20194;50.950;5.346;2023-11-21T11:53:44;11.40;99.90
33903;DHT22;20194;50.950;5.346;2023-11-21T11:59:01;11.30;99.90
33903;DHT22;20194;50.950;5.346;2023-11-21T12:01:28;11.40;99.90
33903;DHT22;20194;50.950;5.346;2023-11-21T12:07:02;11.40;99.90
33903;DHT22;20194;50.950;5.346;2023-11-21T12:09:30;11.50;99.90
33903;DHT22;20194;50.950;5.346;2023-11-21T12:11:57;11.70;99.90
33903;DHT22;20194;50.950;5.346;2023-11-21T12:14:23;11.70;99.90
33903;DHT22;20194;50.950;5.346;2023-11-21T12:16:49;11.70;99.90
33903;DHT22;20194;50.950;5.346;2023-11-21T12:19:15;11.90;99.90
33903;DHT22;20194;50.950;5.346;2023-11-21T12:21:40;11.90;99.90
33903;DHT22;20194;50.950;5.346;2023-11-21T12:24:07;12.00;99.90
33903;DHT22;20194;50.950;5.346;2023-11-21T12:26:42;12.10;99.90
33903;DHT22;20194;50.950;5.346;2023-11-21T12:29:08;12.20;99.90
33903;DHT22;20194;50.950;5.346;2023-11-21T12:31:34;12.30;99.90
33903;DHT22;20194;50.950;5.346;2023-11-21T12:34:00;12.20;99.90
33903;DHT22;20194;50.950;5.346;2023-11-21T12:36:26;12.20;99.90
33903;DHT22;20194;50.950;5.346;2023-11-21T12:38:54;12.00;99.90
33903;DHT22;20194;50.950;5.346;2023-11-21T12:41:20;12.00;99.90
33903;DHT22;20194;50.950;5.346;2023-11-21T12:43:47;12.00;99.90
33903;DHT22;20194;50.950;5.346;2023-11-21T12:46:13;12.00;99.90
33903;DHT22;20194;50.950;5.346;2023-11-21T12:48:44;12.10;99.90
33903;DHT22;20194;50.950;5.346;2023-11-21T12:51:13;12.00;99.90
33903;DHT22;20194;50.950;5.346;2023-11-21T12:53:42;11.90;99.90
33903;DHT22;20194;50.950;5.346;2023-11-21T12:56:10;11.90;99.90
33903;DHT22;20194;50.950;5.346;2023-11-21T12:58:40;11.90;99.90
33903;DHT22;20194;50.950;5.346;2023-11-21T13:01:10;11.70;99.90
33903;DHT22;20194;50.950;5.346;2023-11-21T13:03:38;11.90;99.90
33903;DHT22;20194;50.950;5.346;2023-11-21T13:06:06;11.90;99.90
33903;DHT22;20194;50.950;5.346;2023-11-21T13:08:33;12.00;99.90
33903;DHT22;20194;50.950;5.346;2023-11-21T13:10:59;12.10;99.90
33903;DHT22;20194;50.950;5.346;2023-11-21T13:13:28;12.10;99.90
33903;DHT22;20194;50.950;5.346;2023-11-21T13:15:55;11.90;99.90
33903;DHT22;20194;50.950;5.346;2023-11-21T13:18:23;12.00;99.90
33903;DHT22;20194;50.950;5.346;2023-11-21T13:20:49;12.00;99.90
33903;DHT22;20194;50.950;5.346;2023-11-21T13:23:16;11.90;99.90
33903;DHT22;20194;50.950;5.346;2023-11-21T13:25:43;11.90;99.90
33903;DHT22;20194;50.950;5.346;2023-11-21T13:28:11;12.00;99.90
33903;DHT22;20194;50.950;5.346;2023-11-21T13:30:38;12.00;99.90
33903;DHT22;20194;50.950;5.346;2023-11-21T13:33:06;12.10;99.90
33903;DHT22;20194;50.950;5.346;2023-11-21T13:35:34;12.00;99.90
33903;DHT22;20194;50.950;5.346;2023-11-21T13:38:16;12.00;99.90
33903;DHT22;20194;50.950;5.346;2023-11-21T13:40:57;12.00;99.90
33903;DHT22;20194;50.950;5.346;2023-11-21T13:43:24;11.90;99.90
33903;DHT22;20194;50.950;5.346;2023-11-21T13:45:53;11.90;99.90
33903;DHT22;20194;50.950;5.346;2023-11-21T13:48:28;12.00;99.90
33903;DHT22;20194;50.950;5.346;2023-11-21T13:51:03;12.20;99.90
33903;DHT22;20194;50.950;5.346;2023-11-21T13:53:43;12.30;99.90
33903;DHT22;20194;50.950;5.346;2023-11-21T13:56:09;12.30;99.90
33903;DHT22;20194;50.950;5.346;2023-11-21T13:58:36;12.30;99.90
33903;DHT22;20194;50.950;5.346;2023-11-21T14:01:26;12.20;99.90
33903;DHT22;20194;50.950;5.346;2023-11-21T14:03:58;12.30;99.90
33903;DHT22;20194;50.950;5.346;2023-11-21T14:06:50;12.30;99.90
33903;DHT22;20194;50.950;5.346;2023-11-21T14:09:21;12.30;99.90
33903;DHT22;20194;50.950;5.346;2023-11-21T14:11:55;12.20;99.90
33903;DHT22;20194;50.950;5.346;2023-11-21T14:14:24;12.00;99.90
33903;DHT22;20194;50.950;5.346;2023-11-21T14:16:51;12.00;99.90
33903;DHT22;20194;50.950;5.346;2023-11-21T14:19:18;12.10;99.90
33903;DHT22;20194;50.950;5.346;2023-11-21T14:21:47;12.30;99.90
33903;DHT22;20194;50.950;5.346;2023-11-21T14:24:14;12.30;99.90
33903;DHT22;20194;50.950;5.346;2023-11-21T14:26:44;12.40;99.90
33903;DHT22;20194;50.950;5.346;2023-11-21T14:29:12;12.30;99.90
33903;DHT22;20194;50.950;5.346;2023-11-21T14:31:40;12.40;99.90
33903;DHT22;20194;50.950;5.346;2023-11-21T14:34:09;12.40;99.90
33903;DHT22;20194;50.950;5.346;2023-11-21T14:36:36;12.40;99.90
33903;DHT22;20194;50.950;5.346;2023-11-21T14:39:09;12.50;99.90
33903;DHT22;20194;50.950;5.346;2023-11-21T14:41:46;12.50;99.90
33903;DHT22;20194;50.950;5.346;2023-11-21T14:44:12;12.40;99.90
33903;DHT22;20194;50.950;5.346;2023-11-21T14:46:39;12.30;99.90
33903;DHT22;20194;50.950;5.346;2023-11-21T14:49:08;12.30;99.90
33903;DHT22;20194;50.950;5.346;2023-11-21T14:51:51;12.20;99.90
33903;DHT22;20194;50.950;5.346;2023-11-21T14:54:30;12.30;99.90
33903;DHT22;20194;50.950;5.346;2023-11-21T14:57:12;12.40;99.90
33903;DHT22;20194;50.950;5.346;2023-11-21T14:59:45;12.50;99.90
33903;DHT22;20194;50.950;5.346;2023-11-21T15:02:20;12.20;99.90
33903;DHT22;20194;50.950;5.346;2023-11-21T15:05:08;12.20;99.90
33903;DHT22;20194;50.950;5.346;2023-11-21T15:07:40;12.00;99.90
33903;DHT22;20194;50.950;5.346;2023-11-21T15:10:09;12.10;99.90
33903;DHT22;20194;50.950;5.346;2023-11-21T15:12:40;12.10;99.90
33903;DHT22;20194;50.950;5.346;2023-11-21T15:15:06;12.00;99.90
33903;DHT22;20194;50.950;5.346;2023-11-21T15:17:35;12.10;99.90
33903;DHT22;20194;50.950;5.346;2023-11-21T15:20:02;12.20;99.90
33903;DHT22;20194;50.950;5.346;2023-11-21T15:22:29;12.20;99.90
33903;DHT22;20194;50.950;5.346;2023-11-21T15:24:55;12.20;99.90
33903;DHT22;20194;50.950;5.346;2023-11-21T15:27:21;12.20;99.90
33903;DHT22;20194;50.950;5.346;2023-11-21T15:29:47;12.10;99.90
33903;DHT22;20194;50.950;5.346;2023-11-21T15:32:15;12.10;99.90
33903;DHT22;20194;50.950;5.346;2023-11-21T15:34:41;12.00;99.90
33903;DHT22;20194;50.950;5.346;2023-11-21T15:37:07;12.00;99.90
33903;DHT22;20194;50.950;5.346;2023-11-21T15:39:37;12.00;99.90
33903;DHT22;20194;50.950;5.346;2023-11-21T15:42:04;12.10;99.90
33903;DHT22;20194;50.950;5.346;2023-11-21T15:44:33;12.00;99.90
33903;DHT22;20194;50.950;5.346;2023-11-21T15:46:59;12.00;99.90
33903;DHT22;20194;50.950;5.346;2023-11-21T15:49:24;12.20;99.90
33903;DHT22;20194;50.950;5.346;2023-11-21T15:51:52;12.10;99.90